Ochlockonee Bay, Florida
Current Conditions -  °F | °C
As of 7:53 PM on Thursday 27 Nov 2014 (Local Time) from KTLH Reporting Station
Clear Clear  
Wind Chill: 49°   Ceiling: Unl
Heat Index: 49°   Visibility: 10mi
Dew Point: 34°   Wind: 3mph
Humidity: 56%   Direction: 310°NW
Pressure: 30.34"   Gusts: NA
Location:  30.0223°N, 84.3911°W
Report Text: KTLH 280053Z 31003KT 10SM CLR 09/01 A3034 RMK AO2 SLP274 T00940011 $
Loading
Personal Weather Stations






























Interactive Weather Map New forecast layout! Learn more

10-Day Weather Forecast

Advertisements
Track Severe Weather on mobile